Time;durP1;ratioP1;P1;durP2;ratioP2;P2;SDS_P1;SDS_P2;PMS_P1;PMS_P2;Temp;Humidity;BMP_temperature;BMP_pressure;BME280_temperature;BME280_humidity;BME280_pressure;Samples;Min_cycle;Max_cycle;Signal;HPM_P1;HPM_P2
2023/12/01 00:00:17;;;;;;;22.10;11.03;;;;;;;3.78;100.00;101064.16;2090119;28;20192;-65
2023/12/01 00:01:18;;;;;;;19.63;11.90;;;;;;;3.78;100.00;101061.41;2094624;28;20183;-65
2023/12/01 00:02:20;;;;;;;23.50;12.27;;;;;;;3.78;100.00;101055.91;2097870;28;20600;-65
2023/12/01 00:03:20;;;;;;;17.77;10.77;;;;;;;3.68;100.00;101034.66;2094777;28;20163;-65
2023/12/01 00:04:21;;;;;;;20.73;11.13;;;;;;;3.74;100.00;101050.41;2090883;28;20180;-65
2023/12/01 00:05:22;;;;;;;19.50;11.17;;;;;;;3.75;100.00;101048.47;2098406;28;20170;-65
2023/12/01 00:06:22;;;;;;;18.17;10.50;;;;;;;3.23;100.00;100972.75;2098053;28;20288;-65
2023/12/01 00:07:23;;;;;;;21.83;11.80;;;;;;;3.79;100.00;101050.06;2091259;28;20540;-65
2023/12/01 00:08:23;;;;;;;19.90;11.00;;;;;;;3.89;100.00;101062.28;2095530;28;20782;-65
2023/12/01 00:09:24;;;;;;;21.77;12.73;;;;;;;3.88;100.00;101057.97;2098180;28;20198;-65
2023/12/01 00:10:25;;;;;;;20.53;11.23;;;;;;;3.86;100.00;101054.84;2094695;28;20676;-65
2023/12/01 00:11:25;;;;;;;17.97;10.23;;;;;;;3.84;100.00;101060.69;2091331;28;20230;-65
2023/12/01 00:12:26;;;;;;;25.87;13.43;;;;;;;3.80;100.00;101059.09;2097967;28;20179;-65
2023/12/01 00:13:26;;;;;;;21.83;11.37;;;;;;;3.43;100.00;101009.75;2098020;28;20179;-65
2023/12/01 00:14:27;;;;;;;19.93;11.37;;;;;;;3.78;100.00;101064.16;2090481;28;20196;-65
2023/12/01 00:15:27;;;;;;;22.43;10.83;;;;;;;3.57;100.00;101047.47;2095592;28;20485;-65
2023/12/01 00:16:28;;;;;;;22.47;11.03;;;;;;;3.68;100.00;101060.13;2098246;28;20705;-65
2023/12/01 00:17:28;;;;;;;19.47;12.23;;;;;;;3.21;100.00;100996.19;2097364;28;20274;-65
2023/12/01 00:18:29;;;;;;;20.90;11.33;;;;;;;3.69;100.00;101066.41;2096090;28;20258;-65
2023/12/01 00:19:29;;;;;;;21.30;11.77;;;;;;;3.60;100.00;101052.22;2090640;28;20179;-65
2023/12/01 00:20:31;;;;;;;21.70;12.13;;;;;;;3.04;100.00;100966.66;2097990;28;20180;-65
2023/12/01 00:21:31;;;;;;;21.05;11.02;;;;;;;3.56;100.00;101049.44;2097987;28;20192;-65
2023/12/01 00:22:32;;;;;;;22.03;11.87;;;;;;;3.35;100.00;100994.41;2091102;28;20197;-65
2023/12/01 00:23:32;;;;;;;19.00;10.97;;;;;;;3.77;100.00;101052.41;2089035;28;20570;-65
2023/12/01 00:24:33;;;;;;;20.03;11.53;;;;;;;3.75;100.00;101051.22;2089621;28;20196;-65
2023/12/01 00:25:33;;;;;;;21.87;11.97;;;;;;;3.72;100.00;101052.75;2092462;28;20311;-65
2023/12/01 00:26:34;;;;;;;24.60;12.37;;;;;;;3.52;100.00;101031.38;2097675;28;20563;-65
2023/12/01 00:27:35;;;;;;;21.07;11.97;;;;;;;3.76;100.00;101063.75;2097416;28;20783;-65
2023/12/01 00:28:35;;;;;;;18.87;10.73;;;;;;;3.75;100.00;101059.44;2089972;28;20172;-65
2023/12/01 00:29:36;;;;;;;17.57;10.67;;;;;;;3.66;100.00;101057.00;2089597;28;20631;-65
2023/12/01 00:30:37;;;;;;;19.67;11.37;;;;;;;3.58;100.00;101063.56;2095078;28;20764;-65
2023/12/01 00:31:37;;;;;;;23.13;12.73;;;;;;;3.75;100.00;101070.41;2097191;28;20195;-65
2023/12/01 00:32:38;;;;;;;20.37;11.93;;;;;;;3.79;100.00;101072.00;2093693;28;20270;-65
2023/12/01 00:33:39;;;;;;;25.97;11.77;;;;;;;3.78;100.00;101073.16;2091459;28;20177;-65
2023/12/01 00:34:40;;;;;;;21.60;11.80;;;;;;;3.04;100.00;100948.25;2097312;28;20649;-65
2023/12/01 00:35:41;;;;;;;22.42;12.52;;;;;;;3.75;100.00;101065.69;2098012;28;20718;-65
2023/12/01 00:36:41;;;;;;;24.63;12.97;;;;;;;3.83;100.00;101063.81;2089566;28;20263;-65
2023/12/01 00:37:43;;;;;;;24.17;12.63;;;;;;;3.68;100.00;101065.63;2096310;28;20260;-65
2023/12/01 00:38:43;;;;;;;24.55;12.90;;;;;;;3.05;100.00;100944.38;2091916;28;20680;-65
2023/12/01 00:39:44;;;;;;;20.83;11.13;;;;;;;3.84;100.00;101079.88;2093840;28;20593;-65
2023/12/01 00:40:44;;;;;;;22.87;11.80;;;;;;;3.78;100.00;101064.16;2094772;28;20270;-65
2023/12/01 00:41:45;;;;;;;25.47;12.47;;;;;;;3.73;100.00;101059.81;2091132;28;20169;-65
2023/12/01 00:42:45;;;;;;;20.90;11.60;;;;;;;2.84;100.00;100924.97;2096911;28;20719;-65
2023/12/01 00:43:46;;;;;;;21.90;11.57;;;;;;;3.75;100.00;101054.72;2089625;28;20169;-65
2023/12/01 00:44:46;;;;;;;22.63;11.90;;;;;;;3.72;100.00;101054.69;2096475;28;20275;-65
2023/12/01 00:45:47;;;;;;;24.20;12.70;;;;;;;3.52;100.00;101037.66;2097576;28;20203;-65
2023/12/01 00:46:47;;;;;;;20.50;11.20;;;;;;;3.33;100.00;100985.78;2097868;28;20194;-65
2023/12/01 00:47:48;;;;;;;19.13;11.50;;;;;;;3.78;100.00;101059.47;2097631;28;20283;-64
2023/12/01 00:48:48;;;;;;;21.13;11.93;;;;;;;3.75;100.00;101041.00;2095535;28;20174;-65
2023/12/01 00:49:49;;;;;;;21.73;12.00;;;;;;;3.59;100.00;101015.78;2097064;28;20179;-65
2023/12/01 00:50:49;;;;;;;20.67;11.43;;;;;;;2.92;100.00;100912.94;2105925;28;20677;-65
2023/12/01 00:51:50;;;;;;;18.53;11.90;;;;;;;3.91;100.00;101054.50;2097466;28;20202;-65
2023/12/01 00:52:51;;;;;;;23.10;12.40;;;;;;;3.91;100.00;101057.25;2090276;28;20209;-65
2023/12/01 00:53:51;;;;;;;22.17;11.55;;;;;;;3.94;100.00;101059.22;2094406;28;20214;-65
2023/12/01 00:54:52;;;;;;;22.10;10.57;;;;;;;3.93;100.00;101057.66;2097488;28;20667;-65
2023/12/01 00:55:52;;;;;;;19.60;10.80;;;;;;;3.83;100.00;101044.63;2095173;28;20271;-65
2023/12/01 00:56:53;;;;;;;21.53;11.03;;;;;;;3.55;100.00;101005.97;2089485;28;20172;-65
2023/12/01 00:57:54;;;;;;;21.87;11.37;;;;;;;3.89;100.00;101059.56;2089126;28;20621;-65
2023/12/01 00:58:54;;;;;;;26.80;12.37;;;;;;;3.89;100.00;101065.84;2097425;28;20192;-65
2023/12/01 00:59:55;;;;;;;23.30;11.20;;;;;;;3.58;100.00;101010.69;2096471;28;20680;-65
2023/12/01 01:00:55;;;;;;;17.27;10.10;;;;;;;3.92;100.00;101064.31;2097402;28;20203;-65
2023/12/01 01:01:56;;;;;;;22.83;10.90;;;;;;;3.91;100.00;101057.25;2093467;28;20275;-64
2023/12/01 01:02:56;;;;;;;19.07;10.03;;;;;;;3.78;100.00;101062.19;2091522;28;20188;-65
2023/12/01 01:03:57;;;;;;;19.73;11.20;;;;;;;3.72;100.00;101047.25;2097263;28;20255;-64
2023/12/01 01:04:58;;;;;;;19.30;10.13;;;;;;;3.24;100.00;100988.00;2096564;28;20269;-65
2023/12/01 01:05:58;;;;;;;18.33;9.63;;;;;;;3.64;100.00;101064.78;2097517;28;20175;-65
2023/12/01 01:06:59;;;;;;;20.87;10.87;;;;;;;3.67;100.00;101060.50;2097435;28;20188;-65
2023/12/01 01:08:00;;;;;;;22.30;12.47;;;;;;;3.71;100.00;101070.38;2091529;28;20188;-65
2023/12/01 01:09:00;;;;;;;20.27;10.77;;;;;;;3.79;100.00;101074.75;2094293;28;20304;-65
2023/12/01 01:10:01;;;;;;;18.13;10.47;;;;;;;3.82;100.00;101064.97;2093930;28;20201;-65
2023/12/01 01:11:01;;;;;;;20.23;10.53;;;;;;;3.78;100.00;101061.41;2091611;28;20198;-65
2023/12/01 01:12:02;;;;;;;19.57;11.07;;;;;;;3.61;100.00;101038.16;2096380;28;20266;-64
2023/12/01 01:13:03;;;;;;;16.87;10.07;;;;;;;3.85;100.00;101062.28;2089183;28;20287;-65
2023/12/01 01:14:04;;;;;;;19.52;10.02;;;;;;;3.87;100.00;101064.63;2089380;28;20196;-65
2023/12/01 01:15:05;;;;;;;19.77;10.80;;;;;;;3.87;100.00;101059.16;2096042;28;20194;-64
2023/12/01 01:16:08;;;;;;;19.00;10.73;;;;;;;3.90;100.00;101061.94;2097230;28;20726;-65
2023/12/01 01:17:08;;;;;;;23.25;13.07;;;;;;;3.93;100.00;101052.97;2097611;28;20191;-65
2023/12/01 01:18:09;;;;;;;20.33;11.53;;;;;;;3.80;100.00;101035.19;2096630;28;20285;-65
2023/12/01 01:19:09;;;;;;;21.00;10.13;;;;;;;3.94;100.00;101061.97;2097713;28;20190;-65
2023/12/01 01:20:10;;;;;;;23.63;10.80;;;;;;;3.79;100.00;101047.31;2096800;28;20188;-65
2023/12/01 01:21:11;;;;;;;21.90;11.70;;;;;;;3.85;100.00;101032.09;2089537;28;20543;-65
2023/12/01 01:22:12;;;;;;;17.75;10.52;;;;;;;3.44;100.00;100980.41;2096619;28;20297;-65
2023/12/01 01:23:12;;;;;;;21.27;9.10;;;;;;;3.14;100.00;100917.47;2096856;28;20195;-65
2023/12/01 01:24:13;;;;;;;18.60;10.47;;;;;;;3.49;100.00;100975.38;2092284;28;20591;-65
2023/12/01 01:25:14;;;;;;;22.97;9.83;;;;;;;3.74;100.00;101022.22;2089184;28;20196;-65
2023/12/01 01:26:14;;;;;;;17.07;9.53;;;;;;;3.92;100.00;101054.13;2089165;28;20178;-65
2023/12/01 01:27:15;;;;;;;16.87;9.80;;;;;;;3.95;100.00;101053.34;2090311;28;20819;-65
2023/12/01 01:28:15;;;;;;;21.20;10.63;;;;;;;3.91;100.00;101046.28;2097169;28;20184;-65
2023/12/01 01:29:16;;;;;;;19.70;11.07;;;;;;;3.24;100.00;100952.41;2089685;28;20186;-65
2023/12/01 01:30:16;;;;;;;18.73;9.93;;;;;;;3.93;100.00;101038.44;2089254;28;20658;-65
2023/12/01 01:31:17;;;;;;;20.47;11.13;;;;;;;3.89;100.00;101037.63;2094919;28;20556;-65
2023/12/01 01:32:18;;;;;;;22.83;11.27;;;;;;;3.91;100.00;101038.81;2096813;28;20196;-65
2023/12/01 01:33:19;;;;;;;19.90;11.02;;;;;;;3.28;100.00;100934.06;2093694;28;20236;-64
2023/12/01 01:34:19;;;;;;;20.27;11.30;;;;;;;3.85;100.00;101017.63;2090913;28;20176;-65
2023/12/01 01:35:20;;;;;;;17.47;10.23;;;;;;;3.69;100.00;101003.38;2096576;28;20260;-65
2023/12/01 01:36:20;;;;;;;19.40;11.77;;;;;;;3.56;100.00;100974.66;2088870;28;20607;-65
2023/12/01 01:37:22;;;;;;;20.50;9.27;;;;;;;3.83;100.00;101015.25;2096147;28;20681;-65
2023/12/01 01:38:22;;;;;;;18.88;9.73;;;;;;;3.78;100.00;101026.56;2090943;28;20189;-65
2023/12/01 01:39:23;;;;;;;19.23;9.73;;;;;;;3.78;100.00;101023.81;2094242;28;20676;-65
2023/12/01 01:40:23;;;;;;;21.47;11.03;;;;;;;3.77;100.00;101014.03;2097167;28;20220;-65
2023/12/01 01:41:24;;;;;;;20.40;10.63;;;;;;;3.72;100.00;101010.84;2096350;28;20196;-65
2023/12/01 01:42:25;;;;;;;19.27;9.20;;;;;;;2.83;100.00;100881.56;2097042;28;20266;-65
2023/12/01 01:43:26;;;;;;;20.33;10.67;;;;;;;3.68;100.00;101010.81;2097300;28;20240;-64
2023/12/01 01:44:27;;;;;;;19.33;10.15;;;;;;;3.05;100.00;100918.94;2097804;28;20272;-65
2023/12/01 01:45:27;;;;;;;18.70;10.13;;;;;;;3.34;100.00;100964.66;2097174;28;20481;-65
2023/12/01 01:46:28;;;;;;;23.03;10.40;;;;;;;3.68;100.00;100982.59;2096716;28;20198;-65
2023/12/01 01:47:29;;;;;;;23.13;10.67;;;;;;;3.36;100.00;100938.47;2096591;28;20270;-65
2023/12/01 01:48:30;;;;;;;25.07;11.17;;;;;;;3.31;100.00;100938.81;2097417;28;20176;-65
2023/12/01 01:49:31;;;;;;;16.23;10.13;;;;;;;3.71;100.00;101001.84;2097185;28;20673;-65
2023/12/01 01:50:31;;;;;;;18.30;10.23;;;;;;;3.71;100.00;100996.34;2097047;28;20551;-65
2023/12/01 01:51:34;;;;;;;19.50;10.37;;;;;;;3.50;100.00;100965.97;2097829;28;20258;-65
2023/12/01 01:52:37;;;;;;;15.65;9.82;;;;;;;3.69;100.00;100995.16;2097294;28;20194;-65
2023/12/01 01:53:41;;;;;;;17.30;9.25;;;;;;;3.56;100.00;100991.09;2088672;28;20275;-65
2023/12/01 01:54:42;;;;;;;17.48;9.55;;;;;;;3.70;100.00;101002.97;2094292;28;20241;-65
2023/12/01 01:55:43;;;;;;;21.40;11.27;;;;;;;3.66;100.00;101007.66;2092230;28;20196;-65
2023/12/01 01:56:44;;;;;;;18.10;9.90;;;;;;;3.13;100.00;100934.31;2092540;28;20683;-65
2023/12/01 01:57:47;;;;;;;18.35;10.50;;;;;;;3.63;100.00;101016.63;2097080;28;20660;-65
2023/12/01 01:58:47;;;;;;;15.80;8.85;;;;;;;3.60;100.00;101011.88;2097210;28;20175;-65
2023/12/01 01:59:48;;;;;;;15.43;9.13;;;;;;;2.65;100.00;100866.88;2096896;28;20172;-65
2023/12/01 02:00:49;;;;;;;19.40;9.57;;;;;;;3.58;100.00;101011.47;2097063;28;20229;-64
2023/12/01 02:01:51;;;;;;;18.65;9.40;;;;;;;3.63;100.00;101007.59;2089877;28;20531;-65
2023/12/01 02:02:51;;;;;;;21.77;10.00;;;;;;;3.61;100.00;101009.94;2094883;28;20249;-65
2023/12/01 02:03:53;;;;;;;17.90;10.03;;;;;;;3.64;100.00;101011.94;2092357;28;20241;-65
2023/12/01 02:04:54;;;;;;;15.35;8.82;;;;;;;3.03;100.00;100911.09;2089703;28;20184;-65
2023/12/01 02:05:54;;;;;;;16.67;9.77;;;;;;;3.57;100.00;101006.38;2091515;28;20204;-65
2023/12/01 02:06:55;;;;;;;17.60;9.63;;;;;;;3.56;100.00;101002.84;2097161;28;20237;-65
2023/12/01 02:07:55;;;;;;;22.53;9.97;;;;;;;3.56;100.00;101005.59;2097099;28;20220;-65
2023/12/01 02:09:00;;;;;;;17.87;9.33;;;;;;;2.88;100.00;100903.88;2089214;28;20180;-65
2023/12/01 02:10:00;;;;;;;15.63;9.25;;;;;;;2.72;100.00;100872.44;2089103;28;20210;-65
2023/12/01 02:11:01;;;;;;;16.67;9.20;;;;;;;2.81;100.00;100903.00;2095163;28;20199;-65
2023/12/01 02:12:02;;;;;;;18.13;9.30;;;;;;;3.40;100.00;100983.13;2097068;28;20212;-65
2023/12/01 02:13:03;;;;;;;19.17;9.33;;;;;;;3.37;100.00;100975.66;2092909;28;20600;-65
2023/12/01 02:14:03;;;;;;;17.37;10.00;;;;;;;3.42;100.00;100990.94;2088858;28;20268;-65
2023/12/01 02:15:04;;;;;;;17.17;9.60;;;;;;;3.45;100.00;100990.22;2089414;28;20270;-65
2023/12/01 02:16:06;;;;;;;18.87;9.80;;;;;;;3.30;100.00;100961.88;2097547;28;20625;-65
2023/12/01 02:17:06;;;;;;;17.27;9.07;;;;;;;3.45;100.00;100988.22;2097556;28;20225;-65
2023/12/01 02:18:23;;;;;;;17.80;9.07;;;;;;;3.44;100.00;100986.66;2089809;28;20188;-65
2023/12/01 02:19:23;;;;;;;18.80;9.82;;;;;;;3.14;100.00;100942.13;2096575;28;20219;-67
2023/12/01 02:20:24;;;;;;;16.77;9.50;;;;;;;3.41;100.00;101000.34;2096626;28;20194;-67
2023/12/01 02:21:25;;;;;;;18.20;10.77;;;;;;;3.37;100.00;101005.78;2095708;28;20281;-67
2023/12/01 02:22:27;;;;;;;14.63;8.77;;;;;;;3.22;100.00;100968.44;2092389;28;20192;-67
2023/12/01 02:23:28;;;;;;;19.92;10.05;;;;;;;3.11;100.00;100948.34;2090961;28;20203;-67
2023/12/01 02:24:28;;;;;;;17.70;9.50;;;;;;;3.17;100.00;100957.81;2096735;28;20180;-67
2023/12/01 02:25:29;;;;;;;16.83;9.60;;;;;;;3.35;100.00;100986.19;2096655;28;20528;-67
2023/12/01 02:26:29;;;;;;;17.03;9.57;;;;;;;3.41;100.00;100992.13;2089371;28;20197;-67
2023/12/01 02:27:30;;;;;;;16.60;9.33;;;;;;;3.45;100.00;100996.47;2095737;28;20614;-67
2023/12/01 02:28:30;;;;;;;18.47;9.57;;;;;;;3.44;100.00;100994.88;2096900;28;20275;-67
2023/12/01 02:29:31;;;;;;;18.93;9.53;;;;;;;3.40;100.00;100988.59;2096562;28;20198;-67
2023/12/01 02:30:31;;;;;;;17.83;10.93;;;;;;;3.43;100.00;100981.56;2096993;28;20184;-67
2023/12/01 02:31:32;;;;;;;16.07;9.70;;;;;;;3.40;100.00;100980.38;2096921;28;20177;-67
2023/12/01 02:32:33;;;;;;;18.98;9.52;;;;;;;3.05;100.00;100916.22;2096845;28;20238;-67
2023/12/01 02:33:34;;;;;;;17.23;9.50;;;;;;;3.34;100.00;100970.13;2096946;28;20336;-67
2023/12/01 02:34:34;;;;;;;24.30;9.57;;;;;;;3.36;100.00;100974.06;2096338;28;20265;-67
2023/12/01 02:35:35;;;;;;;21.50;10.77;;;;;;;3.37;100.00;100967.44;2096149;28;20262;-67
2023/12/01 02:36:35;;;;;;;19.13;10.53;;;;;;;3.35;100.00;100977.19;2096748;28;20278;-67
2023/12/01 02:37:36;;;;;;;19.07;10.17;;;;;;;3.40;100.00;100974.09;2097249;28;20278;-67
2023/12/01 02:38:36;;;;;;;15.63;9.40;;;;;;;3.39;100.00;100969.78;2094112;28;20175;-67
2023/12/01 02:39:37;;;;;;;16.73;9.73;;;;;;;3.42;100.00;100971.75;2090171;28;20609;-67
2023/12/01 02:40:42;;;;;;;20.83;9.23;;;;;;;3.06;100.00;100915.84;2096790;28;20175;-67
2023/12/01 02:41:44;;;;;;;15.77;8.90;;;;;;;3.39;100.00;100975.28;2088476;28;20159;-67
2023/12/01 02:42:49;;;;;;;17.58;9.35;;;;;;;2.31;100.00;100818.78;2095481;28;20198;-67
2023/12/01 02:43:50;;;;;;;20.58;9.38;;;;;;;3.32;100.00;100970.50;2096083;28;20982;-67
2023/12/01 02:44:50;;;;;;;18.63;9.40;;;;;;;3.33;100.00;100961.13;2090827;28;20555;-67
2023/12/01 02:45:51;;;;;;;14.73;9.40;;;;;;;3.29;100.00;100948.56;2093305;28;20194;-67
2023/12/01 02:46:51;;;;;;;18.40;10.47;;;;;;;3.23;100.00;100939.09;2093914;28;20206;-67
2023/12/01 02:47:52;;;;;;;18.20;9.43;;;;;;;3.41;100.00;100964.72;2090542;28;20255;-67
2023/12/01 02:48:52;;;;;;;15.87;9.63;;;;;;;3.30;100.00;100942.72;2096778;28;20608;-67
2023/12/01 02:49:53;;;;;;;19.37;11.43;;;;;;;3.37;100.00;100964.69;2097385;28;20555;-67
2023/12/01 02:50:53;;;;;;;20.83;11.20;;;;;;;3.40;100.00;100971.38;2097075;28;20235;-67
2023/12/01 02:51:54;;;;;;;14.80;8.90;;;;;;;3.43;100.00;100965.91;2090595;28;20199;-67
2023/12/01 02:52:54;;;;;;;20.27;9.20;;;;;;;3.42;100.00;100956.13;2092890;28;20642;-67
2023/12/01 02:53:55;;;;;;;14.73;8.80;;;;;;;3.41;100.00;100962.78;2096357;28;20657;-67
2023/12/01 02:54:56;;;;;;;15.50;9.03;;;;;;;3.45;100.00;100973.75;2096411;28;20737;-67
2023/12/01 02:55:56;;;;;;;16.93;9.43;;;;;;;2.99;100.00;100904.03;2096687;28;20181;-67
2023/12/01 02:56:57;;;;;;;21.03;9.07;;;;;;;2.71;100.00;100863.44;2097217;28;20180;-67
2023/12/01 02:57:57;;;;;;;16.83;9.13;;;;;;;2.83;100.00;100882.31;2088491;28;20713;-66
2023/12/01 02:58:58;;;;;;;15.93;10.03;;;;;;;3.46;100.00;100972.59;2088269;28;20282;-67
2023/12/01 02:59:58;;;;;;;13.83;9.07;;;;;;;3.47;100.00;100966.75;2088641;28;20271;-67
2023/12/01 03:01:00;;;;;;;13.67;9.13;;;;;;;3.49;100.00;100972.63;2088546;28;20676;-67
2023/12/01 03:02:00;;;;;;;15.65;8.18;;;;;;;3.52;100.00;100968.34;2091413;28;20597;-67
2023/12/01 03:03:01;;;;;;;15.30;9.60;;;;;;;3.34;100.00;100959.19;2096412;28;20175;-67
2023/12/01 03:04:01;;;;;;;15.27;8.53;;;;;;;2.89;100.00;100880.84;2096750;28;20607;-67
2023/12/01 03:05:02;;;;;;;13.73;8.73;;;;;;;3.48;100.00;100978.47;2096992;28;20186;-67
2023/12/01 03:06:03;;;;;;;17.27;8.13;;;;;;;3.42;100.00;100980.78;2096944;28;20219;-67
2023/12/01 03:07:04;;;;;;;14.75;8.20;;;;;;;3.41;100.00;100984.69;2090702;28;20275;-65
2023/12/01 03:08:04;;;;;;;12.87;8.23;;;;;;;3.08;100.00;100921.72;2088559;28;20205;-65
2023/12/01 03:09:05;;;;;;;17.53;9.17;;;;;;;3.33;100.00;100977.53;2092033;28;20397;-65
2023/12/01 03:10:09;;;;;;;15.07;8.47;;;;;;;3.20;100.00;100969.97;2094561;28;20187;-64
2023/12/01 03:11:10;;;;;;;15.57;8.98;;;;;;;3.16;100.00;100960.91;2088464;28;20176;-65
2023/12/01 03:12:10;;;;;;;16.60;8.60;;;;;;;3.20;100.00;100965.28;2088217;28;20191;-65
2023/12/01 03:13:11;;;;;;;15.77;8.57;;;;;;;2.97;100.00;100925.53;2096874;28;20203;-65
2023/12/01 03:14:11;;;;;;;15.77;8.13;;;;;;;3.24;100.00;100966.09;2089404;28;20200;-65
2023/12/01 03:15:14;;;;;;;14.73;8.77;;;;;;;2.86;100.00;100927.31;2094257;28;20196;-65
2023/12/01 03:16:16;;;;;;;22.85;11.23;;;;;;;3.26;100.00;100969.25;2096806;28;20202;-65
2023/12/01 03:17:17;;;;;;;16.65;9.38;;;;;;;3.37;100.00;100970.16;2096742;28;20191;-65
2023/12/01 03:18:20;;;;;;;15.00;8.60;;;;;;;3.38;100.00;100973.72;2096719;28;20178;-65
2023/12/01 03:19:20;;;;;;;16.25;8.38;;;;;;;3.42;100.00;100958.06;2096773;28;20554;-67
2023/12/01 03:20:21;;;;;;;16.67;8.90;;;;;;;2.69;100.00;100837.59;2096560;28;20227;-67
2023/12/01 03:21:22;;;;;;;17.20;8.70;;;;;;;2.98;100.00;100875.84;2088727;28;20176;-67
2023/12/01 03:22:22;;;;;;;18.97;9.37;;;;;;;3.58;100.00;100966.84;2095847;28;20190;-67
2023/12/01 03:23:22;;;;;;;18.37;9.83;;;;;;;2.49;100.00;100786.94;2095907;28;20191;-67
2023/12/01 03:24:23;;;;;;;18.53;11.23;;;;;;;3.02;100.00;100870.41;2092280;28;20199;-67
2023/12/01 03:25:24;;;;;;;19.63;9.20;;;;;;;3.49;100.00;100953.44;2091492;28;20327;-67
2023/12/01 03:26:24;;;;;;;15.90;9.20;;;;;;;3.53;100.00;100950.75;2095652;28;20319;-67
2023/12/01 03:27:25;;;;;;;19.87;9.30;;;;;;;3.58;100.00;100950.41;2095383;28;20794;-67
2023/12/01 03:28:25;;;;;;;19.77;10.33;;;;;;;3.57;100.00;100952.38;2097101;28;20688;-67
2023/12/01 03:29:26;;;;;;;17.67;9.57;;;;;;;3.60;100.00;100953.56;2095966;28;20195;-67
2023/12/01 03:30:27;;;;;;;16.90;10.07;;;;;;;3.58;100.00;100951.19;2096021;28;20668;-67
2023/12/01 03:31:27;;;;;;;16.43;9.33;;;;;;;3.12;100.00;100881.47;2091716;28;20198;-65
2023/12/01 03:32:28;;;;;;;15.13;9.17;;;;;;;3.61;100.00;100949.66;2088233;28;20210;-65
2023/12/01 03:33:30;;;;;;;20.23;9.47;;;;;;;3.69;100.00;100951.31;2090371;28;20251;-64
2023/12/01 03:34:31;;;;;;;14.25;8.77;;;;;;;3.68;100.00;100930.53;2096442;28;20417;-65
2023/12/01 03:35:31;;;;;;;22.37;9.43;;;;;;;3.68;100.00;100927.78;2096205;28;20175;-65
2023/12/01 03:36:32;;;;;;;16.53;9.17;;;;;;;3.72;100.00;100921.19;2097142;28;20180;-65
2023/12/01 03:37:32;;;;;;;18.87;9.87;;;;;;;3.74;100.00;100932.53;2096800;28;20267;-65
2023/12/01 03:38:33;;;;;;;18.37;9.07;;;;;;;3.75;100.00;100936.84;2090833;28;20217;-65
2023/12/01 03:39:34;;;;;;;16.73;10.90;;;;;;;2.75;100.00;100776.69;2088333;28;20192;-65
2023/12/01 03:40:34;;;;;;;21.53;9.83;;;;;;;3.71;100.00;100932.53;2091405;28;20588;-65
2023/12/01 03:41:35;;;;;;;18.03;9.83;;;;;;;3.75;100.00;100931.38;2094203;28;20611;-65
2023/12/01 03:42:38;;;;;;;17.37;9.57;;;;;;;3.14;100.00;100835.31;2088880;28;20180;-65
2023/12/01 03:43:38;;;;;;;19.08;10.32;;;;;;;3.30;100.00;100857.00;2096567;28;20183;-65
2023/12/01 03:44:39;;;;;;;18.87;9.63;;;;;;;3.64;100.00;100918.75;2096689;28;20190;-65
2023/12/01 03:45:39;;;;;;;19.77;10.27;;;;;;;3.85;100.00;100941.63;2089833;28;20196;-65
2023/12/01 03:46:40;;;;;;;15.77;9.93;;;;;;;3.43;100.00;100875.50;2088285;28;20196;-65
2023/12/01 03:47:48;;;;;;;15.07;8.63;;;;;;;3.77;100.00;100934.53;2088603;28;20191;-65
2023/12/01 03:48:49;;;;;;;18.35;9.82;;;;;;;3.75;100.00;100927.84;2092002;28;20227;-65
2023/12/01 03:49:49;;;;;;;17.30;9.63;;;;;;;3.80;100.00;100933.00;2094314;28;20176;-65
2023/12/01 03:50:50;;;;;;;22.40;10.57;;;;;;;3.71;100.00;100936.06;2089310;28;20255;-65
2023/12/01 03:51:52;;;;;;;16.70;9.67;;;;;;;3.32;100.00;100887.53;2097098;28;20183;-65
2023/12/01 03:52:52;;;;;;;20.20;9.43;;;;;;;3.52;100.00;100906.13;2096577;28;20256;-65
2023/12/01 03:53:53;;;;;;;16.53;9.37;;;;;;;3.69;100.00;100935.63;2089704;28;20331;-65
2023/12/01 03:54:53;;;;;;;21.50;9.37;;;;;;;3.56;100.00;100923.41;2093884;28;20198;-65
2023/12/01 03:55:54;;;;;;;20.20;9.73;;;;;;;3.75;100.00;100938.81;2095904;28;20184;-65
2023/12/01 03:56:54;;;;;;;16.67;8.73;;;;;;;3.73;100.00;100932.91;2096546;28;20184;-65
2023/12/01 03:57:54;;;;;;;18.93;9.40;;;;;;;3.69;100.00;100941.13;2096377;28;20175;-65
2023/12/01 03:58:56;;;;;;;16.10;8.90;;;;;;;3.29;100.00;100880.09;2096353;28;20674;-65
2023/12/01 03:59:56;;;;;;;20.48;9.95;;;;;;;3.62;100.00;100934.78;2097112;28;20656;-65
2023/12/01 04:00:57;;;;;;;22.87;8.80;;;;;;;3.57;100.00;100932.38;2088294;28;20723;-65
2023/12/01 04:01:57;;;;;;;17.77;8.80;;;;;;;3.59;100.00;100927.34;2088271;28;20585;-65
2023/12/01 04:02:58;;;;;;;17.27;9.13;;;;;;;3.56;100.00;100920.66;2092121;28;20730;-65
2023/12/01 04:03:59;;;;;;;16.50;8.37;;;;;;;3.56;100.00;100917.91;2093343;28;20638;-65
2023/12/01 04:04:59;;;;;;;16.23;8.17;;;;;;;3.54;100.00;100906.53;2091993;28;20625;-65
2023/12/01 04:06:01;;;;;;;16.00;8.77;;;;;;;3.27;100.00;100872.22;2090490;28;20191;-65
2023/12/01 04:07:01;;;;;;;17.83;9.40;;;;;;;3.56;100.00;100898.72;2098603;28;20574;-65
2023/12/01 04:08:03;;;;;;;18.87;8.70;;;;;;;3.60;100.00;100904.25;2090504;28;20207;-65
2023/12/01 04:09:05;;;;;;;16.70;9.38;;;;;;;3.59;100.00;100884.25;2096483;28;20209;-65
2023/12/01 04:10:10;;;;;;;19.17;10.27;;;;;;;3.46;100.00;100863.81;2097293;28;20509;-65
2023/12/01 04:11:11;;;;;;;24.63;9.80;;;;;;;3.44;100.00;100868.09;2098051;28;20199;-65
2023/12/01 04:12:11;;;;;;;19.93;11.77;;;;;;;2.85;100.00;100769.75;2097789;28;20194;-65
2023/12/01 04:13:13;;;;;;;18.67;10.23;;;;;;;3.59;100.00;100883.50;2095172;28;20206;-65
2023/12/01 04:14:13;;;;;;;17.55;9.23;;;;;;;3.60;100.00;100883.09;2089705;28;20617;-65
2023/12/01 04:15:15;;;;;;;22.80;9.53;;;;;;;3.56;100.00;100889.72;2090073;28;20394;-65
2023/12/01 04:16:15;;;;;;;18.83;10.32;;;;;;;3.58;100.00;100868.19;2098427;28;20244;-65
2023/12/01 04:17:16;;;;;;;19.20;10.80;;;;;;;3.49;100.00;100863.03;2091205;28;20189;-65
2023/12/01 04:18:16;;;;;;;20.30;10.47;;;;;;;3.53;100.00;100879.50;2094561;28;20237;-65
2023/12/01 04:19:17;;;;;;;18.07;10.20;;;;;;;3.52;100.00;100878.72;2097050;28;20195;-65
2023/12/01 04:20:22;;;;;;;21.47;10.30;;;;;;;3.52;100.00;100883.41;2094918;28;20290;-65
2023/12/01 04:21:23;;;;;;;29.50;10.98;;;;;;;3.50;100.00;100897.47;2091625;28;20594;-64
2023/12/01 04:22:23;;;;;;;19.33;9.73;;;;;;;3.35;100.00;100875.84;2097694;28;20182;-65
2023/12/01 04:23:24;;;;;;;20.93;8.60;;;;;;;3.51;100.00;100890.06;2097807;28;20207;-65
2023/12/01 04:24:25;;;;;;;18.43;9.77;;;;;;;3.40;100.00;100859.03;2089048;28;20196;-65
2023/12/01 04:25:26;;;;;;;16.47;10.20;;;;;;;3.51;100.00;100882.63;2096261;28;20181;-65
2023/12/01 04:26:28;;;;;;;19.30;9.07;;;;;;;3.51;100.00;100870.88;2092011;28;20783;-65
2023/12/01 04:27:30;;;;;;;21.98;9.85;;;;;;;3.50;100.00;100875.56;2093601;28;20227;-65
2023/12/01 04:28:31;;;;;;;16.88;8.88;;;;;;;3.52;100.00;100875.19;2097129;28;20206;-65
2023/12/01 04:29:31;;;;;;;22.80;9.93;;;;;;;2.66;100.00;100757.06;2097338;28;20262;-65
2023/12/01 04:32:55;;;;;;;20.58;11.23;;;;;;;3.33;100.00;100878.16;2092271;28;20226;-67
2023/12/01 04:33:55;;;;;;;21.30;11.10;;;;;;;2.84;100.00;100809.22;2096720;28;20183;-67
2023/12/01 04:34:56;;;;;;;24.43;10.40;;;;;;;3.37;100.00;100878.97;2094931;28;20226;-67
2023/12/01 04:35:56;;;;;;;20.30;10.93;;;;;;;3.04;100.00;100829.75;2091083;28;20175;-67
2023/12/01 04:36:57;;;;;;;23.33;12.57;;;;;;;3.46;100.00;100873.97;2097412;28;20274;-65
2023/12/01 04:38:03;;;;;;;15.97;8.87;;;;;;;3.47;100.00;100875.53;2098314;28;20179;-65
2023/12/01 04:39:04;;;;;;;20.33;10.10;;;;;;;3.49;100.00;100874.00;2097669;28;20206;-64
2023/12/01 04:40:13;;;;;;;23.73;11.70;;;;;;;2.91;100.00;100785.44;2097365;28;20193;-64